Arvada, Colorado
Current Conditions -  °F | °C
As of 11:55 PM on Sunday 21 Dec 2014 (Local Time) from KBJC Reporting Station
Light Snow Light Snow  
Wind Chill: 27°   Ceiling: 2300
Heat Index: 34°   Visibility: 3mi
Dew Point: 32°   Wind: 8mph
Humidity: 93%   Direction: 230°SW
Pressure: 29.72"   Gusts: NA
Location:  39.8°N, 105.08°W
Report Text: KBJC 220655Z AUTO 23007KT 3SM -SN SCT015 OVC023 01/00 A2972 RMK AO2
Loading
Personal Weather Stations






























Interactive Weather Map New forecast layout! Learn more

10-Day Weather Forecast

Advertisements
Track Severe Weather on mobile